Cayuga, Indiana
Current Conditions -  °F | °C
As of 10:55 PM on Saturday 22 Nov 2014 (Local Time) from KDNV Reporting Station
Moderate Rain Moderate Rain  
Wind Chill: 43°   Ceiling: 5000
Heat Index: 49°   Visibility: 7mi
Dew Point: 46°   Wind: 14mph
Humidity: 90%   Direction: 180°S
Pressure: 29.93"   Gusts: 18mph
Location:  39.95°N, 87.46°W
Report Text: KDNV 230355Z AUTO 18012G16KT 7SM RA SCT035 BKN050 OVC065 09/08 A2993 RMK AO2 P0002 T00930078
Loading
Personal Weather Stations






























Interactive Weather Map New forecast layout! Learn more

10-Day Weather Forecast

Advertisements
Track Severe Weather on mobile